Back to Top

Language: 

My Weather Underground Personal Weather Station Historical Data with Graphs...

Delerius Weather Station Historical Data
Daily Summary for January 3, 2016 Units:  Metric    English   Both
« Previous Day
Next Day »
Daily Weekly Monthly Yearly Custom
  High: Low: Average:
Temperature: 8 °C 4.8 °C 6.7 °C
Dew Point: 7.7 °C 4.2 °C 6.2 °C
Humidity: 98 % 95 % 97 %
Wind Speed: 20.9 km/h 0 km/h 6.4 km/h
Wind Gust: 30.6 km/h - -
Wind:- - SSE
Pressure: 999.2 hPa 978.9 hPa -
Precipitation: 7.62 mm    
Historical Graphs
 
 
Tabular Data for January 3, 2016
Time Temperature Dew Point Pressure Wind Wind Speed Wind Gust Humidity Rainfall Rate (Hourly) solar Conditions
00:00 8 °C 7.7 °C 999.2 hPa Calm   30.6 km/h 98 % 0 mm 0 W/m2
00:05 8 °C 7.7 °C 999.2 hPa Calm   30.6 km/h 98 % 0 mm 0 W/m2
00:15 8 °C 7.7 °C 999.2 hPa Calm     98 % 0 mm 0 W/m2
00:25 8 °C 7.7 °C 999.2 hPa Calm     98 % 0 mm 0 W/m2
00:30 8 °C 7.7 °C 999.2 hPa Calm     98 % 0 mm 0 W/m2
00:35 8 °C 7.7 °C 998.9 hPa Calm   1.6 km/h 98 % 0 mm 0 W/m2
00:40 8 °C 7.7 °C 998.9 hPa Calm     98 % 0 mm 0 W/m2
00:45 8 °C 7.7 °C 999.2 hPa Calm     98 % 0 mm 0 W/m2
00:55 8 °C 7.7 °C 999.2 hPa Calm     98 % 0 mm 0 W/m2
01:00 8 °C 7.7 °C 998.9 hPa Calm     98 % 0 mm 0 W/m2
01:05 8 °C 7.7 °C 998.9 hPa Calm   9.7 km/h 98 % 0 mm 0 W/m2
01:10 8 °C 7.7 °C 998.9 hPa Calm   9.7 km/h 98 % 0 mm 0 W/m2
01:15 7.9 °C 7.7 °C 998.9 hPa Calm   9.7 km/h 98 % 0 mm 0 W/m2
01:20 7.9 °C 7.7 °C 998.9 hPa Calm   9.7 km/h 98 % 0 mm 0 W/m2
01:30 7.9 °C 7.7 °C 998.9 hPa Calm   9.7 km/h 98 % 0 mm 0 W/m2
01:35 7.9 °C 7.7 °C 998.5 hPa Calm   9.7 km/h 98 % 0 mm 0 W/m2
01:40 7.9 °C 7.7 °C 998.5 hPa Calm   9.7 km/h 98 % 0 mm 0 W/m2
01:45 7.9 °C 7.7 °C 998.5 hPa Calm   9.7 km/h 98 % 0 mm 0 W/m2
01:50 7.9 °C 7.7 °C 998.5 hPa Calm   9.7 km/h 98 % 0 mm 0 W/m2
02:00 7.9 °C 7.7 °C 998.5 hPa Calm   9.7 km/h 98 % 0 mm 0 W/m2
02:05 7.9 °C 7.7 °C 998.5 hPa Calm   9.7 km/h 98 % 0 mm 0 W/m2
02:10 7.9 °C 7.7 °C 998.5 hPa Calm   9.7 km/h 98 % 0 mm 0 W/m2
02:15 7.9 °C 7.6 °C 998.5 hPa Calm   9.7 km/h 98 % 0 mm 0 W/m2
02:20 7.9 °C 7.6 °C 998.5 hPa Calm   9.7 km/h 98 % 0 mm 0 W/m2
02:25 7.9 °C 7.6 °C 998.5 hPa Calm   9.7 km/h 98 % 0 mm 0 W/m2
02:35 7.9 °C 7.6 °C 998.2 hPa Calm   9.7 km/h 98 % 0 mm 0 W/m2
02:40 7.9 °C 7.6 °C 998.2 hPa Calm   9.7 km/h 98 % 0 mm 0 W/m2
02:45 7.8 °C 7.6 °C 998.2 hPa Calm   9.7 km/h 98 % 0 mm 0 W/m2
02:50 7.9 °C 7.6 °C 998.2 hPa Calm   9.7 km/h 98 % 0 mm 0 W/m2
02:55 7.9 °C 7.6 °C 998.2 hPa Calm   9.7 km/h 98 % 0 mm 0 W/m2
03:05 7.8 °C 7.6 °C 997.9 hPa Calm   9.7 km/h 98 % 0 mm 0 W/m2
03:10 7.8 °C 7.6 °C 997.9 hPa Calm   9.7 km/h 98 % 0 mm 0 W/m2
03:15 7.8 °C 7.5 °C 997.5 hPa Calm   9.7 km/h 98 % 0 mm 0 W/m2
03:20 7.8 °C 7.5 °C 997.5 hPa Calm   9.7 km/h 98 % 0 mm 0 W/m2
03:25 7.7 °C 7.4 °C 997.5 hPa Calm   9.7 km/h 98 % 0 mm 0 W/m2
03:30 7.7 °C 7.4 °C 997.5 hPa Calm   9.7 km/h 98 % 0 mm 0 W/m2
03:40 7.4 °C 7.2 °C 997.2 hPa Calm   9.7 km/h 98 % 0 mm 0 W/m2
03:45 7.4 °C 7.1 °C 997.2 hPa Calm   9.7 km/h 98 % 0 mm 0 W/m2
03:50 7.3 °C 7.1 °C 997.2 hPa Calm   9.7 km/h 98 % 0 mm 0 W/m2
03:55 7.3 °C 7 °C 997.2 hPa Calm   9.7 km/h 98 % 0 mm 0 W/m2
04:05 7.2 °C 6.9 °C 996.8 hPa Calm   9.7 km/h 98 % 0 mm 0 W/m2
04:10 7.2 °C 6.9 °C 996.8 hPa Calm   9.7 km/h 98 % 0 mm 0 W/m2
04:15 7.2 °C 6.9 °C 996.8 hPa Calm   9.7 km/h 98 % 0 mm 0 W/m2
04:20 7.2 °C 6.9 °C 996.8 hPa Calm   9.7 km/h 98 % 0 mm 0 W/m2
04:25 7.3 °C 7 °C 996.5 hPa Calm   9.7 km/h 98 % 0 mm 0 W/m2
04:30 7.2 °C 6.9 °C 996.5 hPa Calm   9.7 km/h 98 % 0 mm 0 W/m2
04:40 7.2 °C 6.9 °C 996.5 hPa Calm   9.7 km/h 98 % 0 mm 0 W/m2
04:45 7.2 °C 6.9 °C 996.5 hPa Calm   9.7 km/h 98 % 0 mm 0 W/m2
04:50 7.2 °C 6.9 °C 996.2 hPa Calm   9.7 km/h 98 % 0 mm 0 W/m2
05:00 7.2 °C 6.9 °C 995.8 hPa Calm   9.7 km/h 98 % 0 mm 0 W/m2
05:05 7.2 °C 6.9 °C 995.8 hPa Calm   9.7 km/h 98 % 0 mm 0 W/m2
05:10 7.2 °C 6.9 °C 995.8 hPa Calm   9.7 km/h 98 % 0 mm 0 W/m2
05:20 7.3 °C 7 °C 995.8 hPa Calm   9.7 km/h 98 % 0 mm 0 W/m2
05:25 7.3 °C 7 °C 995.8 hPa Calm   9.7 km/h 98 % 0 mm 0 W/m2
05:30 7.3 °C 7.1 °C 995.5 hPa Calm   9.7 km/h 98 % 0 mm 0 W/m2
05:35 7.3 °C 7.1 °C 995.5 hPa Calm   9.7 km/h 98 % 0 mm 0 W/m2
05:40 7.3 °C 7.1 °C 995.5 hPa Calm   9.7 km/h 98 % 0 mm 0 W/m2
05:50 7.4 °C 7.1 °C 995.1 hPa Calm   9.7 km/h 98 % 0 mm 0 W/m2
05:55 7.4 °C 7.1 °C 995.1 hPa Calm   9.7 km/h 98 % 0 mm 0 W/m2
06:00 7.4 °C 7.1 °C 994.8 hPa Calm   9.7 km/h 98 % 0 mm 0 W/m2
06:05 7.4 °C 7.2 °C 994.8 hPa Calm   9.7 km/h 98 % 0 mm 0 W/m2
06:10 7.4 °C 7.2 °C 994.8 hPa WSW 1.6 km/h 9.7 km/h 98 % 0 mm 0 W/m2
06:15 7.4 °C 7.1 °C 994.8 hPa WSW 1.6 km/h 9.7 km/h 98 % 0 mm 0 W/m2
06:25 7.3 °C 7 °C 994.8 hPa Calm   9.7 km/h 98 % 0 mm 0 W/m2
06:30 7.2 °C 6.9 °C 994.8 hPa Calm   9.7 km/h 98 % 0 mm 0 W/m2
06:35 7.2 °C 6.9 °C 994.5 hPa WSW 1.6 km/h 9.7 km/h 98 % 0 mm 0 W/m2
06:40 7.1 °C 6.8 °C 994.5 hPa WSW 3.2 km/h 9.7 km/h 98 % 0 mm 0 W/m2
06:45 6.9 °C 6.7 °C 994.1 hPa SW 4.8 km/h 9.7 km/h 98 % 0 mm 0 W/m2
06:55 6.7 °C 6.4 °C 994.1 hPa SW 1.6 km/h 9.7 km/h 98 % 0 mm 0 W/m2
07:00 6.7 °C 6.4 °C 994.1 hPa Calm   9.7 km/h 98 % 0 mm 0 W/m2
07:05 6.5 °C 6.2 °C 993.8 hPa SSW 1.6 km/h 9.7 km/h 98 % 0 mm 0 W/m2
07:10 6.3 °C 6.1 °C 993.5 hPa SSW 3.2 km/h 3.2 km/h 98 % 0 mm 0 W/m2
07:15 6.2 °C 5.9 °C 993.5 hPa SSW 1.6 km/h 9.7 km/h 98 % 0 mm 0 W/m2
07:20 6.1 °C 5.8 °C 993.8 hPa Calm   9.7 km/h 98 % 0 mm 0 W/m2
07:30 5.9 °C 5.7 °C 993.5 hPa South 1.6 km/h 1.6 km/h 98 % 0 mm 0 W/m2
07:35 5.9 °C 5.7 °C 993.8 hPa Calm   9.7 km/h 98 % 0 mm 0 W/m2
07:40 5.9 °C 5.6 °C 993.5 hPa Calm   9.7 km/h 98 % 0 mm 0 W/m2
07:45 5.9 °C 5.6 °C 993.5 hPa SSE 1.6 km/h 9.7 km/h 98 % 0 mm 0 W/m2
07:50 5.8 °C 5.5 °C 993.5 hPa South 3.2 km/h 9.7 km/h 98 % 0 mm 0 W/m2
08:00 5.7 °C 5.4 °C 993.1 hPa South 4.8 km/h 4.8 km/h 98 % 0 mm 0 W/m2
08:05 5.7 °C 5.4 °C 993.1 hPa SSW 6.4 km/h 6.4 km/h 98 % 0 mm 0 W/m2
08:10 5.7 °C 5.4 °C 993.1 hPa SSW 8 km/h 8 km/h 98 % 0 mm 0 W/m2
08:15 5.7 °C 5.4 °C 992.8 hPa South 4.8 km/h 9.7 km/h 98 % 0 mm 0 W/m2
08:20 5.6 °C 5.3 °C 992.8 hPa South 4.8 km/h 9.7 km/h 98 % 0 mm 0 W/m2
08:25 5.6 °C 5.1 °C 992.8 hPa SSE 4.8 km/h 9.7 km/h 97 % 0 mm 0 W/m2
08:35 5.5 °C 5.1 °C 992.4 hPa SSE 8 km/h 9.7 km/h 97 % 0 mm 5 W/m2
08:40 5.5 °C 5.1 °C 992.4 hPa SE 8 km/h 8 km/h 97 % 0 mm 5 W/m2
08:45 5.5 °C 5.1 °C 992.1 hPa SE 8 km/h 9.7 km/h 97 % 0 mm 7 W/m2
08:50 5.5 °C 5.1 °C 992.1 hPa South 6.4 km/h 9.7 km/h 97 % 0 mm 9 W/m2
08:55 5.5 °C 4.9 °C 992.1 hPa SSE 6.4 km/h 9.7 km/h 96 % 0 mm 11 W/m2
09:05 5.4 °C 4.8 °C 992.1 hPa SSE 6.4 km/h 9.7 km/h 96 % 0 mm 14 W/m2
09:10 5.4 °C 4.8 °C 992.1 hPa SSE 8 km/h 9.7 km/h 96 % 0 mm 14 W/m2
09:15 5.5 °C 4.9 °C 991.8 hPa SSE 9.7 km/h 9.7 km/h 96 % 0 mm 16 W/m2
09:25 5.5 °C 4.9 °C 991.4 hPa SE 9.7 km/h 14.5 km/h 96 % 0 mm 18 W/m2
09:30 5.5 °C 4.9 °C 991.4 hPa SE 9.7 km/h 9.7 km/h 96 % 0 mm 19 W/m2
09:35 5.5 °C 4.9 °C 991.4 hPa SE 9.7 km/h 12.9 km/h 96 % 0 mm 21 W/m2
09:45 5.5 °C 4.9 °C 991.1 hPa SE 9.7 km/h 9.7 km/h 96 % 0 mm 25 W/m2
09:50 5.5 °C 4.9 °C 991.1 hPa SE 9.7 km/h 9.7 km/h 96 % 0 mm 25 W/m2
09:55 5.5 °C 4.9 °C 991.1 hPa SE 9.7 km/h 9.7 km/h 96 % 0 mm 26 W/m2
10:00 5.5 °C 4.9 °C 990.7 hPa SSE 8 km/h 9.7 km/h 96 % 0 mm 28 W/m2
10:05 5.5 °C 4.8 °C 990.7 hPa ESE 9.7 km/h 12.9 km/h 95 % 0 mm 30 W/m2
10:15 5.6 °C 4.8 °C 990.4 hPa SE 11.3 km/h 12.9 km/h 95 % 0 mm 35 W/m2
10:20 5.6 °C 4.8 °C 990.4 hPa SE 11.3 km/h 14.5 km/h 95 % 0 mm 35 W/m2
10:25 5.6 °C 4.8 °C 990.4 hPa ESE 11.3 km/h 14.5 km/h 95 % 0 mm 30 W/m2
10:30 5.6 °C 4.9 °C 990.1 hPa SE 11.3 km/h 16.1 km/h 95 % 0 mm 32 W/m2
10:35 5.7 °C 4.9 °C 990.1 hPa SE 12.9 km/h 17.7 km/h 95 % 0 mm 46 W/m2
10:45 5.7 °C 5 °C 989.7 hPa SSE 12.9 km/h 12.9 km/h 95 % 0 mm 46 W/m2
10:50 5.8 °C 5.1 °C 989.7 hPa SE 11.3 km/h 11.3 km/h 95 % 0 mm 44 W/m2
10:55 5.8 °C 5.1 °C 989.4 hPa SE 11.3 km/h 11.3 km/h 95 % 0 mm 42 W/m2
11:00 5.8 °C 5.1 °C 989.4 hPa SSE 11.3 km/h 12.9 km/h 95 % 0 mm 44 W/m2
11:05 5.8 °C 5.1 °C 989.4 hPa East 12.9 km/h 12.9 km/h 95 % 0 mm 42 W/m2
11:10 5.9 °C 5.2 °C 989.1 hPa ESE 12.9 km/h 12.9 km/h 95 % 0 mm 42 W/m2
11:20 6 °C 5.3 °C 988.7 hPa East 12.9 km/h 12.9 km/h 95 % 0 mm 33 W/m2
11:25 5.9 °C 5.2 °C 988.4 hPa SE 14.5 km/h 14.5 km/h 95 % 0 mm 32 W/m2
11:30 5.9 °C 5.2 °C 988.4 hPa ESE 12.9 km/h 12.9 km/h 95 % 0 mm 32 W/m2
11:35 5.9 °C 5.2 °C 988 hPa SE 12.9 km/h 12.9 km/h 95 % 0 mm 28 W/m2
11:40 5.9 °C 5.2 °C 988 hPa SE 14.5 km/h 20.9 km/h 95 % 0 mm 28 W/m2
11:50 5.9 °C 5.2 °C 987.7 hPa SE 14.5 km/h 14.5 km/h 95 % 0 mm 23 W/m2
11:55 5.9 °C 5.2 °C 987.7 hPa SE 14.5 km/h 19.3 km/h 95 % 0 mm 21 W/m2
12:00 6 °C 5.4 °C 987.7 hPa SE 11.3 km/h 12.9 km/h 96 % 0 mm 25 W/m2
12:05 6 °C 5.4 °C 987.4 hPa SE 12.9 km/h 14.5 km/h 96 % 0 mm 32 W/m2
12:10 6.1 °C 5.4 °C 987.4 hPa SE 14.5 km/h 14.5 km/h 96 % 0 mm 33 W/m2
12:15 6.1 °C 5.5 °C 987 hPa ESE 12.9 km/h 14.5 km/h 96 % 0 mm 37 W/m2
12:25 6.2 °C 5.6 °C 986.7 hPa SSE 14.5 km/h 14.5 km/h 96 % 1.02 mm 33 W/m2
12:30 6.2 °C 5.6 °C 986.7 hPa ESE 14.5 km/h 14.5 km/h 96 % 1.52 mm 39 W/m2
12:35 6.2 °C 5.6 °C 986.3 hPa ESE 12.9 km/h 14.5 km/h 96 % 2.03 mm 44 W/m2
12:40 6.2 °C 5.6 °C 986.3 hPa ESE 12.9 km/h 12.9 km/h 96 % 2.03 mm 39 W/m2
12:45 6.2 °C 5.6 °C 986 hPa ESE 12.9 km/h 12.9 km/h 96 % 2.29 mm 33 W/m2
12:55 6.1 °C 5.5 °C 985.7 hPa SE 12.9 km/h 12.9 km/h 96 % 1.78 mm 28 W/m2
13:00 6.1 °C 5.6 °C 985.7 hPa ESE 12.9 km/h 14.5 km/h 97 % 1.78 mm 32 W/m2
13:05 6.1 °C 5.6 °C 985.3 hPa ESE 12.9 km/h 16.1 km/h 97 % 1.78 mm 32 W/m2
13:10 6.1 °C 5.6 °C 985.3 hPa ESE 14.5 km/h 17.7 km/h 97 % 1.78 mm 26 W/m2
13:20 6 °C 5.6 °C 985 hPa ESE 14.5 km/h 19.3 km/h 97 % 1.52 mm 25 W/m2
13:25 6 °C 5.6 °C 984.6 hPa SE 16.1 km/h 19.3 km/h 97 % 1.52 mm 14 W/m2
13:30 6 °C 5.6 °C 984.6 hPa ESE 14.5 km/h 16.1 km/h 97 % 1.52 mm 12 W/m2
13:40 6.1 °C 5.6 °C 984.3 hPa ESE 14.5 km/h 14.5 km/h 97 % 2.03 mm 14 W/m2
13:45 6.1 °C 5.6 °C 984.3 hPa SE 14.5 km/h 14.5 km/h 97 % 2.03 mm 14 W/m2
13:50 6.1 °C 5.7 °C 984 hPa ESE 14.5 km/h 20.9 km/h 97 % 2.79 mm 12 W/m2
13:55 6.2 °C 5.7 °C 983.6 hPa SSE 14.5 km/h 20.9 km/h 97 % 2.29 mm 12 W/m2
14:05 6.3 °C 5.9 °C 983.3 hPa ESE 16.1 km/h 16.1 km/h 97 % 3.05 mm 11 W/m2
14:10 6.4 °C 5.9 °C 983.3 hPa ESE 16.1 km/h 16.1 km/h 97 % 2.03 mm 12 W/m2
14:15 6.4 °C 6 °C 983 hPa ESE 14.5 km/h 19.3 km/h 97 % 3.3 mm 16 W/m2
14:20 6.6 °C 6.1 °C 982.6 hPa ESE 14.5 km/h 14.5 km/h 97 % 2.54 mm 14 W/m2
14:25 6.6 °C 6.3 °C 982.6 hPa ESE 16.1 km/h 20.9 km/h 98 % 1.52 mm 14 W/m2
14:35 6.7 °C 6.3 °C 982.3 hPa East 17.7 km/h 25.7 km/h 97 % 1.52 mm 9 W/m2
14:40 6.8 °C 6.3 °C 981.9 hPa ESE 19.3 km/h 19.3 km/h 97 % 2.03 mm 11 W/m2
14:45 6.8 °C 6.3 °C 981.9 hPa East 19.3 km/h 22.5 km/h 97 % 2.03 mm 9 W/m2
14:50 6.8 °C 6.4 °C 981.6 hPa ESE 17.7 km/h 22.5 km/h 97 % 2.79 mm 7 W/m2
14:55 6.9 °C 6.4 °C 981.6 hPa East 17.7 km/h 22.5 km/h 97 % 1.78 mm 5 W/m2
15:00 6.9 °C 6.5 °C 981.3 hPa East 17.7 km/h 17.7 km/h 97 % 2.54 mm 5 W/m2
15:10 6.9 °C 6.7 °C 981.3 hPa ESE 20.9 km/h 20.9 km/h 98 % 2.54 mm 0 W/m2
15:15 7 °C 6.7 °C 981.3 hPa ESE 19.3 km/h 20.9 km/h 98 % 2.79 mm 0 W/m2
15:20 7 °C 6.7 °C 980.9 hPa East 17.7 km/h 17.7 km/h 98 % 1.78 mm 0 W/m2
15:25 7 °C 6.6 °C 980.6 hPa East 17.7 km/h 17.7 km/h 97 % 1.78 mm 0 W/m2
15:30 7.1 °C 6.6 °C 980.6 hPa East 17.7 km/h 17.7 km/h 97 % 2.03 mm 0 W/m2
15:40 7.1 °C 6.6 °C 980.2 hPa ESE 19.3 km/h 24.1 km/h 97 % 1.52 mm 0 W/m2
15:45 7.1 °C 6.7 °C 980.2 hPa ESE 16.1 km/h 24.1 km/h 97 % 2.29 mm 0 W/m2
15:50 7.1 °C 6.7 °C 980.2 hPa ENE 16.1 km/h 16.1 km/h 97 % 2.29 mm 0 W/m2
15:55 7.2 °C 6.7 °C 979.9 hPa ENE 16.1 km/h 22.5 km/h 97 % 2.29 mm 0 W/m2
16:00 7.2 °C 6.7 °C 979.9 hPa SE 17.7 km/h 24.1 km/h 97 % 2.79 mm 0 W/m2
16:05 7.2 °C 6.7 °C 979.6 hPa ESE 17.7 km/h 24.1 km/h 97 % 1.52 mm 0 W/m2
16:15 7.2 °C 6.9 °C 979.2 hPa SE 16.1 km/h 19.3 km/h 98 % 1.02 mm 0 W/m2
16:20 7.2 °C 6.9 °C 979.2 hPa SSE 16.1 km/h 16.1 km/h 98 % 1.52 mm 0 W/m2
16:25 7.2 °C 6.9 °C 979.2 hPa SE 14.5 km/h 16.1 km/h 98 % 1.52 mm 0 W/m2
16:30 7.3 °C 7 °C 979.2 hPa ESE 16.1 km/h 16.1 km/h 98 % 1.27 mm 0 W/m2
16:35 7.3 °C 7 °C 979.2 hPa ESE 16.1 km/h 16.1 km/h 98 % 1.27 mm 0 W/m2
16:45 7.3 °C 7.1 °C 979.2 hPa SSE 16.1 km/h 16.1 km/h 98 % 1.27 mm 0 W/m2
16:50 7.4 °C 6.9 °C 979.2 hPa ESE 14.5 km/h 14.5 km/h 97 % 1.02 mm 0 W/m2
16:55 7.4 °C 6.9 °C 979.2 hPa SE 12.9 km/h 14.5 km/h 97 % 1.02 mm 0 W/m2
17:00 7.4 °C 7 °C 979.2 hPa SSE 12.9 km/h 12.9 km/h 97 % 1.02 mm 0 W/m2
17:05 7.4 °C 7 °C 978.9 hPa SSE 11.3 km/h 12.9 km/h 97 % 1.02 mm 0 W/m2
17:15 7.5 °C 7.1 °C 978.9 hPa SSE 9.7 km/h 11.3 km/h 97 % 0 mm 0 W/m2
17:20 7.5 °C 7.1 °C 978.9 hPa SW 8 km/h 16.1 km/h 97 % 0 mm 0 W/m2
17:25 7.6 °C 7.3 °C 979.2 hPa SSE 9.7 km/h 16.1 km/h 98 % 0 mm 0 W/m2
17:35 7.4 °C 7 °C 979.2 hPa SSW 11.3 km/h 11.3 km/h 97 % 0 mm 0 W/m2
17:40 7.4 °C 6.9 °C 979.2 hPa WSW 11.3 km/h 11.3 km/h 97 % 0 mm 0 W/m2
17:45 7.3 °C 6.9 °C 979.2 hPa West 11.3 km/h 11.3 km/h 97 % 0 mm 0 W/m2
17:55 7.2 °C 6.8 °C 979.6 hPa SW 11.3 km/h 14.5 km/h 97 % 0 mm 0 W/m2
18:00 7.2 °C 6.6 °C 979.6 hPa SW 11.3 km/h 11.3 km/h 96 % 0 mm 0 W/m2
18:05 7.1 °C 6.5 °C 979.6 hPa WSW 9.7 km/h 11.3 km/h 96 % 0 mm 0 W/m2
18:10 7.1 °C 6.4 °C 979.6 hPa SW 9.7 km/h 9.7 km/h 96 % 0 mm 0 W/m2
18:15 7.1 °C 6.3 °C 979.9 hPa SW 8 km/h 9.7 km/h 95 % 0 mm 0 W/m2
18:25 7 °C 6.3 °C 979.9 hPa SSW 4.8 km/h 9.7 km/h 95 % 0 mm 0 W/m2
18:30 6.9 °C 6.2 °C 979.9 hPa SSW 6.4 km/h 6.4 km/h 95 % 0 mm 0 W/m2
18:35 6.9 °C 6.2 °C 979.9 hPa SSW 4.8 km/h 9.7 km/h 95 % 0 mm 0 W/m2
18:40 6.9 °C 6.2 °C 979.9 hPa SSW 3.2 km/h 3.2 km/h 95 % 0 mm 0 W/m2
18:45 6.9 °C 6.2 °C 979.9 hPa SSW 1.6 km/h 9.7 km/h 95 % 0 mm 0 W/m2
18:50 6.8 °C 6.1 °C 979.9 hPa SSW 1.6 km/h 9.7 km/h 95 % 0 mm 0 W/m2
19:00 6.8 °C 6.1 °C 979.9 hPa SSW 1.6 km/h 9.7 km/h 95 % 0 mm 0 W/m2
19:05 6.8 °C 6.1 °C 979.9 hPa SSW 1.6 km/h 9.7 km/h 95 % 0 mm 0 W/m2
19:10 6.7 °C 6 °C 979.9 hPa SSW 1.6 km/h 1.6 km/h 95 % 0 mm 0 W/m2
19:15 6.7 °C 6 °C 979.9 hPa South 1.6 km/h 9.7 km/h 95 % 0 mm 0 W/m2
19:20 6.7 °C 6 °C 980.2 hPa SSW 1.6 km/h 9.7 km/h 95 % 0 mm 0 W/m2
19:30 6.8 °C 6.2 °C 980.2 hPa South 3.2 km/h 3.2 km/h 96 % 0 mm 0 W/m2
19:35 6.8 °C 6.2 °C 980.2 hPa South 3.2 km/h 9.7 km/h 96 % 0 mm 0 W/m2
19:40 6.8 °C 6.2 °C 980.2 hPa SSW 3.2 km/h 3.2 km/h 96 % 0 mm 0 W/m2
19:45 6.8 °C 6.2 °C 980.2 hPa SSW 3.2 km/h 9.7 km/h 96 % 0 mm 0 W/m2
19:50 6.8 °C 6.2 °C 980.2 hPa SSW 1.6 km/h 1.6 km/h 96 % 0 mm 0 W/m2
19:55 6.8 °C 6.2 °C 980.2 hPa Calm   9.7 km/h 96 % 0 mm 0 W/m2
20:05 6.8 °C 6.2 °C 980.2 hPa SSW 1.6 km/h 9.7 km/h 96 % 0 mm 0 W/m2
20:10 6.7 °C 6.1 °C 980.2 hPa Calm   9.7 km/h 96 % 0 mm 0 W/m2
20:15 6.7 °C 5.9 °C 980.2 hPa Calm   9.7 km/h 95 % 0 mm 0 W/m2
20:20 6.6 °C 5.9 °C 980.2 hPa Calm   9.7 km/h 95 % 0 mm 0 W/m2
20:25 6.6 °C 5.9 °C 980.2 hPa Calm   9.7 km/h 96 % 0 mm 0 W/m2
20:35 6.6 °C 5.9 °C 980.2 hPa SSE 1.6 km/h 9.7 km/h 96 % 0 mm 0 W/m2
20:40 6.6 °C 5.9 °C 980.6 hPa SE 1.6 km/h 9.7 km/h 96 % 0 mm 0 W/m2
20:45 6.6 °C 6 °C 980.6 hPa ESE 4.8 km/h 9.7 km/h 96 % 0 mm 0 W/m2
20:50 6.7 °C 6.1 °C 980.6 hPa ESE 4.8 km/h 4.8 km/h 96 % 0 mm 0 W/m2
20:55 6.7 °C 6.1 °C 980.2 hPa SE 4.8 km/h 8 km/h 96 % 0 mm 0 W/m2
21:00 6.7 °C 6.1 °C 980.2 hPa SSE 6.4 km/h 9.7 km/h 96 % 0 mm 0 W/m2
21:10 6.7 °C 6.1 °C 980.6 hPa SSE 8 km/h 8 km/h 96 % 0 mm 0 W/m2
21:15 6.7 °C 6.1 °C 980.6 hPa SSE 9.7 km/h 11.3 km/h 96 % 0 mm 0 W/m2
21:20 6.7 °C 6.1 °C 980.6 hPa SE 8 km/h 8 km/h 96 % 0 mm 0 W/m2
21:25 6.6 °C 6 °C 980.9 hPa SE 6.4 km/h 9.7 km/h 96 % 0 mm 0 W/m2
21:35 6.6 °C 5.9 °C 980.6 hPa ESE 6.4 km/h 9.7 km/h 96 % 0 mm 0 W/m2
21:40 6.6 °C 5.9 °C 980.6 hPa SE 4.8 km/h 4.8 km/h 96 % 0 mm 0 W/m2
21:45 6.5 °C 5.9 °C 980.6 hPa East 4.8 km/h 9.7 km/h 96 % 0 mm 0 W/m2
21:55 6.4 °C 5.8 °C 980.6 hPa ESE 3.2 km/h 9.7 km/h 96 % 0 mm 0 W/m2
22:00 6.3 °C 5.7 °C 980.6 hPa SE 3.2 km/h 3.2 km/h 96 % 0 mm 0 W/m2
22:05 6.3 °C 5.7 °C 980.6 hPa SE 1.6 km/h 9.7 km/h 96 % 0 mm 0 W/m2
22:15 6.1 °C 5.4 °C 980.6 hPa SSE 4.8 km/h 4.8 km/h 96 % 0 mm 0 W/m2
22:20 6 °C 5.4 °C 980.6 hPa SSE 6.4 km/h 6.4 km/h 96 % 0 mm 0 W/m2
22:25 5.9 °C 5.3 °C 980.6 hPa SSW 4.8 km/h 9.7 km/h 96 % 0 mm 0 W/m2
22:30 5.9 °C 5.3 °C 980.6 hPa South 4.8 km/h 4.8 km/h 96 % 0 mm 0 W/m2
22:35 5.9 °C 5.3 °C 980.6 hPa SSW 4.8 km/h 8 km/h 96 % 0 mm 0 W/m2
22:40 5.9 °C 5.3 °C 980.6 hPa SSW 3.2 km/h 3.2 km/h 96 % 0 mm 0 W/m2
22:50 5.7 °C 5.1 °C 980.6 hPa Calm   9.7 km/h 96 % 0 mm 0 W/m2
22:55 5.6 °C 5 °C 980.9 hPa Calm   9.7 km/h 96 % 0 mm 0 W/m2
23:00 5.4 °C 4.8 °C 980.6 hPa Calm   9.7 km/h 96 % 0 mm 0 W/m2
23:05 5.4 °C 4.8 °C 980.6 hPa South 1.6 km/h 9.7 km/h 96 % 0 mm 0 W/m2
23:10 5.4 °C 4.8 °C 980.6 hPa South 4.8 km/h 9.7 km/h 96 % 0 mm 0 W/m2
23:20 5.3 °C 4.7 °C 980.9 hPa South 3.2 km/h 3.2 km/h 96 % 0 mm 0 W/m2
23:25 5.2 °C 4.6 °C 980.9 hPa SSW 1.6 km/h 9.7 km/h 96 % 0 mm 0 W/m2
23:30 5.2 °C 4.6 °C 980.6 hPa SSE 1.6 km/h 1.6 km/h 96 % 0 mm 0 W/m2
23:35 5.2 °C 4.6 °C 980.6 hPa SSW 1.6 km/h 3.2 km/h 96 % 0 mm 0 W/m2
23:40 5.3 °C 4.7 °C 980.6 hPa SW 3.2 km/h 9.7 km/h 96 % 0 mm 0 W/m2
23:45 5.2 °C 4.6 °C 980.6 hPa SW 3.2 km/h 9.7 km/h 96 % 0 mm 0 W/m2
23:55 4.8 °C 4.2 °C 980.6 hPa Calm   9.7 km/h 96 % 0 mm 0 W/m2
Delerius-Weather
Compliments of Weather Underground - 2 mb

Data updates at regular intervals.